createdAt,value
2022-08-01T00:00:39.337Z,1.90
2022-08-01T00:03:41.729Z,1.70
2022-08-01T00:06:43.960Z,2.00
2022-08-01T00:09:46.907Z,1.95
2022-08-01T00:12:49.147Z,1.77
2022-08-01T00:15:53.952Z,1.75
2022-08-01T00:18:56.793Z,1.70
2022-08-01T00:21:59.028Z,1.95
2022-08-01T00:25:01.599Z,1.67
2022-08-01T00:28:04.419Z,1.85
2022-08-01T00:31:06.759Z,2.20
2022-08-01T00:34:08.993Z,1.95
2022-08-01T00:37:15.901Z,2.00
2022-08-01T00:40:18.397Z,1.90
2022-08-01T00:43:20.657Z,2.08
2022-08-01T00:46:22.864Z,1.92
2022-08-01T00:49:25.178Z,1.90
2022-08-01T00:52:27.495Z,1.70
2022-08-01T00:55:30.033Z,1.98
2022-08-01T00:58:33.350Z,1.90
2022-08-01T01:01:39.669Z,1.73
2022-08-01T01:04:42.324Z,1.77
2022-08-01T01:07:57.999Z,1.67
2022-08-01T01:11:24.907Z,1.50
2022-08-01T01:14:34.894Z,2.10
2022-08-01T01:17:49.999Z,1.98
2022-08-01T01:21:09.392Z,1.70
2022-08-01T01:24:33.599Z,1.98
2022-08-01T01:28:09.507Z,1.70
2022-08-01T01:31:13.027Z,2.03
2022-08-01T01:34:17.481Z,2.12
2022-08-01T01:37:21.882Z,1.92
2022-08-01T01:40:25.165Z,1.92
2022-08-01T01:43:28.951Z,2.00
2022-08-01T01:46:37.058Z,1.92
2022-08-01T01:49:41.475Z,1.85
2022-08-01T01:52:45.420Z,1.90
2022-08-01T01:55:50.135Z,2.00
2022-08-01T01:58:58.578Z,2.00
2022-08-01T02:02:06.061Z,2.00
2022-08-01T02:05:11.305Z,1.70
2022-08-01T02:08:15.991Z,2.10
2022-08-01T02:11:21.778Z,2.30
2022-08-01T02:14:24.779Z,1.90
2022-08-01T02:17:27.927Z,1.87
2022-08-01T02:20:31.245Z,2.03
2022-08-01T02:23:35.239Z,2.25
2022-08-01T02:26:40.651Z,2.20
2022-08-01T02:29:46.642Z,2.25
2022-08-01T02:32:53.164Z,1.90
2022-08-01T02:36:30.351Z,2.15
2022-08-01T02:39:22.693Z,1.75
2022-08-01T02:42:28.416Z,2.08
2022-08-01T02:45:31.871Z,1.90
2022-08-01T02:48:35.133Z,1.80
2022-08-01T02:51:37.918Z,2.20
2022-08-01T02:54:41.640Z,1.80
2022-08-01T02:57:52.467Z,1.87
2022-08-01T03:01:00.204Z,2.53
2022-08-01T03:04:04.221Z,2.03
2022-08-01T03:07:08.612Z,1.95
2022-08-01T03:10:11.262Z,2.95
2022-08-01T03:13:14.539Z,2.20
2022-08-01T03:16:17.335Z,2.42
2022-08-01T03:19:20.173Z,2.30
2022-08-01T03:22:24.482Z,2.20
2022-08-01T03:25:27.384Z,2.60
2022-08-01T03:28:30.546Z,2.10
2022-08-01T03:31:34.333Z,2.55
2022-08-01T03:34:36.581Z,2.00
2022-08-01T03:38:13.088Z,2.37
2022-08-01T03:41:11.414Z,2.22
2022-08-01T03:44:19.220Z,2.33
2022-08-01T03:47:23.468Z,2.08
2022-08-01T03:50:26.176Z,2.12
2022-08-01T03:53:31.672Z,2.25
2022-08-01T03:56:34.400Z,1.98
2022-08-01T03:59:37.776Z,2.78
2022-08-01T04:02:40.327Z,2.05
2022-08-01T04:05:43.754Z,2.22
2022-08-01T04:08:56.529Z,2.35
2022-08-01T04:12:10.156Z,2.95
2022-08-01T04:15:15.194Z,2.53
2022-08-01T04:18:17.391Z,1.85
2022-08-01T04:21:22.960Z,2.35
2022-08-01T04:24:25.765Z,2.03
2022-08-01T04:27:50.272Z,2.05
2022-08-01T04:31:01.244Z,2.12
2022-08-01T04:34:06.228Z,2.17
2022-08-01T04:37:13.177Z,2.08
2022-08-01T04:40:16.004Z,3.37
2022-08-01T04:43:18.326Z,2.12
2022-08-01T04:46:20.593Z,1.75
2022-08-01T04:49:22.938Z,2.00
2022-08-01T04:52:36.810Z,1.75
2022-08-01T04:55:39.076Z,1.50
2022-08-01T04:58:42.472Z,2.08
2022-08-01T05:01:49.854Z,1.90
2022-08-01T05:04:52.123Z,1.75
2022-08-01T05:07:54.322Z,1.70
2022-08-01T05:10:56.635Z,1.52
2022-08-01T05:13:58.831Z,1.70
2022-08-01T05:17:04.211Z,1.40
2022-08-01T05:20:09.500Z,1.52
2022-08-01T05:23:19.271Z,1.50
2022-08-01T05:26:32.175Z,1.70
2022-08-01T05:29:35.626Z,1.50
2022-08-01T05:32:37.977Z,1.52
2022-08-01T05:35:48.505Z,1.70
2022-08-01T05:38:51.530Z,1.60
2022-08-01T05:41:54.149Z,1.60
2022-08-01T05:44:56.429Z,1.40
2022-08-01T05:47:58.645Z,1.62
2022-08-01T05:51:00.866Z,1.45
2022-08-01T05:54:03.630Z,1.52
2022-08-01T05:57:05.854Z,1.55
2022-08-01T06:00:09.010Z,1.30
2022-08-01T06:03:12.416Z,1.52
2022-08-01T06:06:15.280Z,1.58
2022-08-01T06:09:17.489Z,1.20
2022-08-01T06:12:19.738Z,1.52
2022-08-01T06:15:22.601Z,1.65
2022-08-01T06:18:24.848Z,1.60
2022-08-01T06:21:27.055Z,1.60
2022-08-01T06:24:29.327Z,1.52
2022-08-01T06:27:31.537Z,1.50
2022-08-01T06:30:33.816Z,1.40
2022-08-01T06:33:36.173Z,1.55
2022-08-01T06:36:38.445Z,1.60
2022-08-01T06:39:40.647Z,1.48
2022-08-01T06:42:43.020Z,1.45
2022-08-01T06:45:45.321Z,1.80
2022-08-01T06:48:47.566Z,1.45
2022-08-01T06:51:49.839Z,1.50
2022-08-01T06:54:52.236Z,1.30
2022-08-01T06:57:54.470Z,1.67
2022-08-01T07:00:57.739Z,1.40
2022-08-01T07:04:00.465Z,1.67
2022-08-01T07:07:02.990Z,1.60
2022-08-01T07:10:06.133Z,1.30
2022-08-01T07:13:08.358Z,1.42
2022-08-01T07:16:10.561Z,1.33
2022-08-01T07:19:13.431Z,1.45
2022-08-01T07:22:23.130Z,1.50
2022-08-01T07:25:25.891Z,1.52
2022-08-01T07:28:29.072Z,1.95
2022-08-01T07:31:32.472Z,1.33
2022-08-01T07:34:34.954Z,1.25
2022-08-01T07:37:46.100Z,1.50
2022-08-01T07:40:51.567Z,1.40
2022-08-01T07:43:58.020Z,1.33
2022-08-01T07:47:02.962Z,1.40
2022-08-01T07:50:07.009Z,1.35
2022-08-01T07:53:11.241Z,1.40
2022-08-01T07:56:13.417Z,1.10
2022-08-01T07:59:15.637Z,1.20
2022-08-01T08:02:28.369Z,1.42
2022-08-01T08:05:58.770Z,1.15
2022-08-01T08:08:54.510Z,1.30
2022-08-01T08:11:56.815Z,1.40
2022-08-01T08:15:02.177Z,1.33
2022-08-01T08:18:04.724Z,1.27
2022-08-01T08:21:07.022Z,1.15
2022-08-01T08:24:26.925Z,1.40
2022-08-01T08:27:29.480Z,2.40
2022-08-01T08:30:31.850Z,1.00
2022-08-01T08:33:34.052Z,1.33
2022-08-01T08:36:36.265Z,1.55
2022-08-01T08:39:41.546Z,1.60
2022-08-01T08:42:47.373Z,1.17
2022-08-01T08:45:59.666Z,1.33
2022-08-01T08:49:04.716Z,1.40
2022-08-01T08:52:09.472Z,1.25
2022-08-01T08:55:15.381Z,1.40
2022-08-01T08:58:19.164Z,1.65
2022-08-01T09:01:22.856Z,1.30
2022-08-01T09:04:26.745Z,1.30
2022-08-01T09:07:29.215Z,1.10
2022-08-01T09:10:31.448Z,1.27
2022-08-01T09:13:34.589Z,1.20
2022-08-01T09:16:44.170Z,1.20
2022-08-01T09:19:54.671Z,1.20
2022-08-01T09:22:57.035Z,1.30
2022-08-01T09:25:59.537Z,1.45
2022-08-01T09:29:05.794Z,1.35
2022-08-01T09:32:16.240Z,1.40
2022-08-01T09:35:31.840Z,1.40
2022-08-01T09:38:38.324Z,1.20
2022-08-01T09:41:40.901Z,1.77
2022-08-01T09:44:55.142Z,1.23
2022-08-01T09:47:57.557Z,1.30
2022-08-01T09:51:04.661Z,1.30
2022-08-01T09:54:11.628Z,1.30
2022-08-01T09:57:19.386Z,1.40
2022-08-01T10:00:43.889Z,1.40
2022-08-01T10:03:43.960Z,1.50
2022-08-01T10:06:55.603Z,1.50
2022-08-01T10:10:15.966Z,1.17
2022-08-01T10:13:18.289Z,1.70
2022-08-01T10:16:21.561Z,1.37
2022-08-01T10:19:29.040Z,1.17
2022-08-01T10:22:32.632Z,1.48
2022-08-01T10:25:46.675Z,1.60
2022-08-01T10:28:49.816Z,1.55
2022-08-01T10:31:52.646Z,1.37
2022-08-01T10:34:56.264Z,1.30
2022-08-01T10:37:59.160Z,2.03
2022-08-01T10:41:06.036Z,1.30
2022-08-01T10:44:09.300Z,1.48
2022-08-01T10:47:16.144Z,1.80
2022-08-01T10:50:32.807Z,1.37
2022-08-01T10:53:42.420Z,1.55
2022-08-01T10:56:48.675Z,2.00
2022-08-01T11:00:01.268Z,1.52
2022-08-01T11:03:04.822Z,1.42
2022-08-01T11:06:08.371Z,1.67
2022-08-01T11:09:16.219Z,1.30
2022-08-01T11:12:23.253Z,1.45
2022-08-01T11:15:29.069Z,1.40
2022-08-01T11:18:33.849Z,1.65
2022-08-01T11:21:58.128Z,1.27
2022-08-01T11:25:02.345Z,1.37
2022-08-01T11:28:32.266Z,1.30
2022-08-01T11:31:37.804Z,1.00
2022-08-01T11:35:00.708Z,1.50
2022-08-01T11:38:25.681Z,1.55
2022-08-01T11:41:37.406Z,1.70
2022-08-01T11:44:51.356Z,1.42
2022-08-01T11:47:53.598Z,1.40
2022-08-01T11:50:57.931Z,1.37
2022-08-01T11:54:04.622Z,1.42
2022-08-01T11:57:10.453Z,1.60
2022-08-01T12:00:18.176Z,1.40
2022-08-01T12:03:33.209Z,1.52
2022-08-01T12:06:36.356Z,1.45
2022-08-01T12:09:38.596Z,1.77
2022-08-01T12:12:54.831Z,1.37
2022-08-01T12:15:57.290Z,1.37
2022-08-01T12:18:59.581Z,1.50
2022-08-01T12:22:13.608Z,1.70
2022-08-01T12:25:18.453Z,1.45
2022-08-01T12:28:20.677Z,1.60
2022-08-01T12:31:32.495Z,1.65
2022-08-01T12:34:35.281Z,1.50
2022-08-01T12:38:02.205Z,1.87
2022-08-01T12:41:04.899Z,1.95
2022-08-01T12:44:15.748Z,1.67
2022-08-01T12:47:19.626Z,1.70
2022-08-01T12:50:29.113Z,1.50
2022-08-01T12:53:40.861Z,1.67
2022-08-01T12:56:43.883Z,1.50
2022-08-01T12:59:49.630Z,1.42
2022-08-01T13:03:06.456Z,1.42
2022-08-01T13:06:17.171Z,1.75
2022-08-01T13:09:20.596Z,1.70
2022-08-01T13:12:25.561Z,1.75
2022-08-01T13:15:32.657Z,1.70
2022-08-01T13:18:35.641Z,1.67
2022-08-01T13:21:53.811Z,1.62
2022-08-01T13:25:19.853Z,1.35
2022-08-01T13:28:26.419Z,1.40
2022-08-01T13:31:34.531Z,1.45
2022-08-01T13:34:36.810Z,1.70
2022-08-01T13:37:41.023Z,1.62
2022-08-01T13:40:43.741Z,1.60
2022-08-01T13:43:58.149Z,1.27
2022-08-01T13:47:01.448Z,1.40
2022-08-01T13:50:04.748Z,1.60
2022-08-01T13:53:06.993Z,1.35
2022-08-01T13:56:09.304Z,1.48
2022-08-01T13:59:11.521Z,1.48
2022-08-01T14:02:13.728Z,1.48
2022-08-01T14:05:16.005Z,1.35
2022-08-01T14:08:18.274Z,1.30
2022-08-01T14:11:21.346Z,1.30
2022-08-01T14:14:23.789Z,1.48
2022-08-01T14:17:26.146Z,1.25
2022-08-01T14:20:35.214Z,1.35
2022-08-01T14:23:37.601Z,1.15
2022-08-01T14:26:39.795Z,1.10
2022-08-01T14:30:01.083Z,1.10
2022-08-01T14:33:04.334Z,1.35
2022-08-01T14:36:29.345Z,1.30
2022-08-01T14:39:29.368Z,1.40
2022-08-01T14:42:32.170Z,1.20
2022-08-01T14:45:34.371Z,1.40
2022-08-01T14:48:36.792Z,1.30
2022-08-01T14:51:39.249Z,1.25
2022-08-01T14:54:41.453Z,1.62
2022-08-01T14:57:43.653Z,1.98
2022-08-01T15:00:46.418Z,1.83
2022-08-01T15:03:50.850Z,1.12
2022-08-01T15:06:53.145Z,1.52
2022-08-01T15:09:55.394Z,1.60
2022-08-01T15:12:58.494Z,1.50
2022-08-01T15:16:01.081Z,1.35
2022-08-01T15:19:03.522Z,1.52
2022-08-01T15:22:06.574Z,1.42
2022-08-01T15:25:08.991Z,1.02
2022-08-01T15:28:11.522Z,1.23
2022-08-01T15:31:14.452Z,1.20
2022-08-01T15:34:16.989Z,1.20
2022-08-01T15:37:20.402Z,1.20
2022-08-01T15:40:22.680Z,1.25
2022-08-01T15:43:25.242Z,1.30
2022-08-01T15:46:30.594Z,1.33
2022-08-01T15:49:33.470Z,1.40
2022-08-01T15:52:35.770Z,1.67
2022-08-01T15:55:38.862Z,1.40
2022-08-01T15:58:42.187Z,1.20
2022-08-01T16:01:44.596Z,1.70
2022-08-01T16:04:47.007Z,1.80
2022-08-01T16:07:59.733Z,2.67
2022-08-01T16:11:04.348Z,1.40
2022-08-01T16:14:07.197Z,1.62
2022-08-01T16:17:09.448Z,1.62
2022-08-01T16:20:11.770Z,1.62
2022-08-01T16:23:17.277Z,1.40
2022-08-01T16:26:27.460Z,1.40
2022-08-01T16:29:31.974Z,1.70
2022-08-01T16:32:38.160Z,1.50
2022-08-01T16:35:44.852Z,1.50
2022-08-01T16:38:49.246Z,1.30
2022-08-01T16:41:55.320Z,1.52
2022-08-01T16:44:59.695Z,1.30
2022-08-01T16:48:01.971Z,1.60
2022-08-01T16:51:04.288Z,1.83
2022-08-01T16:54:24.511Z,1.90
2022-08-01T16:57:28.629Z,1.87
2022-08-01T17:00:30.892Z,1.70
2022-08-01T17:03:51.642Z,1.83
2022-08-01T17:06:54.980Z,1.80
2022-08-01T17:09:57.345Z,1.40
2022-08-01T17:12:59.652Z,1.65
2022-08-01T17:16:02.016Z,1.52
2022-08-01T17:19:04.979Z,1.42
2022-08-01T17:22:07.269Z,1.60
2022-08-01T17:25:15.958Z,1.67
2022-08-01T17:28:18.533Z,1.40
2022-08-01T17:31:20.806Z,1.55
2022-08-01T17:34:23.139Z,1.73
2022-08-01T17:37:25.634Z,1.40
2022-08-01T17:40:40.070Z,1.42
2022-08-01T17:43:43.351Z,1.50
2022-08-01T17:46:45.740Z,1.75
2022-08-01T17:49:55.546Z,1.65
2022-08-01T17:52:57.782Z,1.35
2022-08-01T17:56:02.437Z,1.70
2022-08-01T17:59:04.963Z,1.65
2022-08-01T18:02:07.216Z,1.73
2022-08-01T18:05:11.440Z,1.95
2022-08-01T18:08:17.748Z,1.67
2022-08-01T18:11:21.206Z,1.40
2022-08-01T18:14:34.762Z,1.70
2022-08-01T18:17:43.423Z,1.98
2022-08-01T18:20:49.279Z,1.75
2022-08-01T18:23:52.300Z,1.95
2022-08-01T18:26:55.730Z,1.92
2022-08-01T18:29:58.903Z,1.95
2022-08-01T18:33:01.174Z,1.80
2022-08-01T18:36:04.524Z,2.17
2022-08-01T18:39:10.037Z,2.00
2022-08-01T18:42:13.271Z,1.62
2022-08-01T18:45:15.501Z,1.73
2022-08-01T18:48:17.741Z,2.28
2022-08-01T18:51:19.990Z,1.87
2022-08-01T18:54:24.324Z,1.87
2022-08-01T18:57:26.613Z,2.00
2022-08-01T19:00:28.825Z,1.87
2022-08-01T19:03:31.138Z,2.05
2022-08-01T19:06:33.523Z,2.12
2022-08-01T19:09:36.059Z,2.10
2022-08-01T19:12:38.332Z,1.75
2022-08-01T19:15:40.650Z,1.98
2022-08-01T19:18:43.097Z,2.50
2022-08-01T19:21:48.936Z,2.80
2022-08-01T19:24:51.139Z,2.20
2022-08-01T19:27:55.286Z,2.20
2022-08-01T19:30:58.412Z,1.90
2022-08-01T19:34:00.709Z,1.95
2022-08-01T19:37:03.726Z,1.90
2022-08-01T19:40:06.473Z,2.20
2022-08-01T19:43:10.608Z,2.75
2022-08-01T19:46:17.607Z,1.92
2022-08-01T19:49:22.117Z,2.20
2022-08-01T19:52:26.916Z,2.47
2022-08-01T19:55:30.750Z,2.50
2022-08-01T19:58:45.296Z,2.40
2022-08-01T20:01:48.247Z,2.17
2022-08-01T20:04:50.729Z,2.28
2022-08-01T20:07:53.183Z,2.35
2022-08-01T20:10:57.355Z,2.10
2022-08-01T20:14:01.048Z,2.50
2022-08-01T20:17:03.662Z,2.30
2022-08-01T20:20:07.089Z,2.20
2022-08-01T20:23:18.089Z,2.12
2022-08-01T20:26:22.318Z,2.70
2022-08-01T20:29:25.811Z,1.95
2022-08-01T20:32:31.977Z,2.12
2022-08-01T20:35:52.850Z,2.00
2022-08-01T20:38:56.859Z,2.20
2022-08-01T20:42:00.397Z,1.90
2022-08-01T20:45:05.025Z,2.40
2022-08-01T20:48:08.395Z,2.10
2022-08-01T20:51:16.642Z,2.95
2022-08-01T20:54:19.631Z,2.20
2022-08-01T20:57:25.430Z,2.37
2022-08-01T21:00:27.914Z,2.37
2022-08-01T21:03:37.289Z,2.08
2022-08-01T21:06:44.049Z,2.42
2022-08-01T21:10:09.807Z,2.03
2022-08-01T21:13:24.266Z,2.28
2022-08-01T21:16:30.123Z,2.10
2022-08-01T21:19:34.638Z,1.90
2022-08-01T21:22:42.043Z,1.90
2022-08-01T21:25:44.431Z,1.77
2022-08-01T21:28:53.910Z,1.92
2022-08-01T21:32:14.067Z,1.80
2022-08-01T21:35:18.869Z,1.87
2022-08-01T21:38:22.373Z,2.00
2022-08-01T21:42:03.340Z,2.00
2022-08-01T21:44:47.949Z,2.10
2022-08-01T21:47:50.896Z,2.00
2022-08-01T21:50:57.582Z,1.90
2022-08-01T21:54:29.643Z,1.75
2022-08-01T21:57:47.587Z,2.10
2022-08-01T22:00:57.414Z,2.67
2022-08-01T22:04:02.933Z,2.33
2022-08-01T22:07:09.509Z,2.00
2022-08-01T22:10:15.726Z,2.00
2022-08-01T22:13:17.910Z,2.05
2022-08-01T22:16:20.508Z,2.00
2022-08-01T22:19:32.768Z,1.77
2022-08-01T22:22:51.927Z,2.10
2022-08-01T22:25:55.354Z,2.12
2022-08-01T22:28:58.123Z,2.10
2022-08-01T22:32:01.379Z,2.15
2022-08-01T22:35:06.128Z,2.10
2022-08-01T22:38:09.750Z,1.92
2022-08-01T22:41:16.949Z,1.92
2022-08-01T22:44:27.234Z,2.50
2022-08-01T22:47:54.525Z,1.90
2022-08-01T22:50:58.417Z,2.00
2022-08-01T22:54:04.049Z,2.03
2022-08-01T22:57:12.337Z,2.42
2022-08-01T23:00:15.210Z,2.25
2022-08-01T23:03:33.759Z,2.15
2022-08-01T23:06:41.933Z,2.22
2022-08-01T23:09:53.238Z,2.20
2022-08-01T23:12:56.867Z,2.40
2022-08-01T23:16:00.617Z,2.25
2022-08-01T23:19:03.610Z,2.35
2022-08-01T23:22:05.898Z,2.47
2022-08-01T23:25:10.413Z,2.33
2022-08-01T23:28:13.536Z,2.40
2022-08-01T23:31:16.202Z,2.20
2022-08-01T23:34:20.154Z,2.53
2022-08-01T23:37:22.598Z,2.78
2022-08-01T23:40:25.305Z,2.20
2022-08-01T23:43:27.631Z,2.80
2022-08-01T23:46:29.988Z,2.12
2022-08-01T23:49:33.057Z,2.37
2022-08-01T23:52:55.300Z,2.30
2022-08-01T23:56:02.444Z,2.30
2022-08-01T23:59:04.992Z,2.90
